createdAt,value
2019-02-06T00:00:54.137Z,102372.47
2019-02-06T00:03:25.612Z,102375.02
2019-02-06T00:05:54.787Z,102371.66
2019-02-06T00:08:24.222Z,102372.89
2019-02-06T00:10:53.468Z,102375.01
2019-02-06T00:13:22.564Z,102375.01
2019-02-06T00:15:52.007Z,102365.33
2019-02-06T00:18:21.192Z,102363.25
2019-02-06T00:20:50.296Z,102363.25
2019-02-06T00:23:19.469Z,102360.30
2019-02-06T00:25:48.642Z,102356.08
2019-02-06T00:28:17.644Z,102356.08
2019-02-06T00:30:47.205Z,102356.50
2019-02-06T00:33:17.346Z,102351.05
2019-02-06T00:35:46.426Z,102351.05
2019-02-06T00:38:15.531Z,102341.78
2019-02-06T00:40:44.610Z,102347.26
2019-02-06T00:43:13.790Z,102339.69
2019-02-06T00:45:43.365Z,102339.69
2019-02-06T00:48:12.479Z,102345.16
2019-02-06T00:50:41.678Z,102345.16
2019-02-06T00:53:10.849Z,102329.57
2019-02-06T00:55:40.031Z,102329.59
2019-02-06T00:58:09.412Z,102329.59
2019-02-06T01:00:38.920Z,102327.06
2019-02-06T01:03:08.562Z,102327.91
2019-02-06T01:05:38.850Z,102324.95
2019-02-06T01:08:08.103Z,102317.38
2019-02-06T01:10:37.245Z,102311.09
2019-02-06T01:13:06.485Z,102315.27
2019-02-06T01:15:35.642Z,102308.97
2019-02-06T01:18:04.925Z,102303.11
2019-02-06T01:20:36.200Z,102299.30
2019-02-06T01:23:05.513Z,102294.66
2019-02-06T01:25:34.637Z,102294.66
2019-02-06T01:28:03.793Z,102287.95
2019-02-06T01:30:49.480Z,102287.95
2019-02-06T01:33:19.624Z,102276.63
2019-02-06T01:35:50.161Z,102260.23
2019-02-06T01:38:19.675Z,102266.53
2019-02-06T01:40:48.729Z,102256.03
2019-02-06T01:43:19.500Z,102256.03
2019-02-06T01:45:48.584Z,102258.56
2019-02-06T01:48:17.589Z,102253.09
2019-02-06T01:50:48.999Z,102245.11
2019-02-06T01:53:18.217Z,102251.41
2019-02-06T01:55:47.337Z,102247.62
2019-02-06T01:58:16.715Z,102255.20
2019-02-06T02:00:45.880Z,102242.58
2019-02-06T02:03:15.299Z,102242.58
2019-02-06T02:05:44.406Z,102244.25
2019-02-06T02:08:13.531Z,102243.84
2019-02-06T02:10:42.722Z,102250.16
2019-02-06T02:13:11.907Z,102251.81
2019-02-06T02:15:41.079Z,102261.06
2019-02-06T02:18:10.227Z,102256.87
2019-02-06T02:20:39.402Z,102256.87
2019-02-06T02:23:08.605Z,102259.81
2019-02-06T02:25:37.697Z,102258.55
2019-02-06T02:28:06.798Z,102243.84
2019-02-06T02:30:40.911Z,102243.84
2019-02-06T02:33:10.092Z,102244.27
2019-02-06T02:35:39.122Z,102232.91
2019-02-06T02:38:08.295Z,102232.91
2019-02-06T02:40:37.550Z,102219.89
2019-02-06T02:43:06.742Z,102219.89
2019-02-06T02:45:37.083Z,102221.17
2019-02-06T02:48:06.227Z,102212.31
2019-02-06T02:50:35.407Z,102214.84
2019-02-06T02:53:04.647Z,102212.73
2019-02-06T02:55:33.658Z,102209.78
2019-02-06T02:58:02.808Z,102205.58
2019-02-06T03:00:45.616Z,102205.58
2019-02-06T03:03:42.674Z,102197.57
2019-02-06T03:06:12.240Z,102195.49
2019-02-06T03:08:41.402Z,102203.91
2019-02-06T03:11:11.471Z,102193.38
2019-02-06T03:13:40.591Z,102193.38
2019-02-06T03:16:11.845Z,102189.19
2019-02-06T03:18:41.045Z,102190.46
2019-02-06T03:21:10.448Z,102184.15
2019-02-06T03:23:39.634Z,102184.15
2019-02-06T03:26:08.899Z,102169.42
2019-02-06T03:28:38.048Z,102166.89
2019-02-06T03:31:07.231Z,102168.15
2019-02-06T03:33:36.377Z,102163.96
2019-02-06T03:36:06.350Z,102163.96
2019-02-06T03:38:35.485Z,102165.25
2019-02-06T03:41:04.990Z,102165.25
2019-02-06T03:43:34.169Z,102152.18
2019-02-06T03:46:07.569Z,102153.87
2019-02-06T03:48:36.765Z,102145.48
2019-02-06T03:51:06.015Z,102145.48
2019-02-06T03:53:35.016Z,102146.76
2019-02-06T03:56:04.191Z,102146.76
2019-02-06T03:58:33.494Z,102142.54
2019-02-06T04:01:02.647Z,102142.54
2019-02-06T04:03:31.781Z,102138.75
2019-02-06T04:06:01.298Z,102128.26
2019-02-06T04:08:30.331Z,102128.26
2019-02-06T04:10:59.417Z,102140.01
2019-02-06T04:13:28.537Z,102142.95
2019-02-06T04:15:57.591Z,102139.59
2019-02-06T04:18:26.664Z,102141.67
2019-02-06T04:20:55.859Z,102143.38
2019-02-06T04:23:24.938Z,102138.31
2019-02-06T04:25:54.110Z,102135.80
2019-02-06T04:28:23.240Z,102135.80
2019-02-06T04:30:52.239Z,102131.16
2019-02-06T04:33:21.576Z,102127.78
2019-02-06T04:35:50.673Z,102121.47
2019-02-06T04:38:19.721Z,102119.81
2019-02-06T04:40:48.711Z,102124.41
2019-02-06T04:43:17.774Z,102131.56
2019-02-06T04:45:46.781Z,102131.56
2019-02-06T04:48:15.862Z,102129.88
2019-02-06T04:50:44.914Z,102118.09
2019-02-06T04:53:14.183Z,102119.38
2019-02-06T04:55:43.180Z,102113.50
2019-02-06T04:58:12.242Z,102116.05
2019-02-06T05:00:41.435Z,102114.33
2019-02-06T05:03:10.620Z,102117.29
2019-02-06T05:05:39.843Z,102108.45
2019-02-06T05:08:09.382Z,102108.45
2019-02-06T05:10:38.493Z,102098.35
2019-02-06T05:13:07.593Z,102102.97
2019-02-06T05:15:36.727Z,102101.70
2019-02-06T05:18:05.914Z,102097.92
2019-02-06T05:20:40.040Z,102097.92
2019-02-06T05:23:10.111Z,102089.91
2019-02-06T05:25:39.285Z,102089.91
2019-02-06T05:28:09.565Z,102081.92
2019-02-06T05:30:38.580Z,102075.18
2019-02-06T05:33:07.611Z,102075.18
2019-02-06T05:35:36.689Z,102079.38
2019-02-06T05:38:07.829Z,102079.38
2019-02-06T05:40:36.936Z,102075.16
2019-02-06T05:43:06.089Z,102071.77
2019-02-06T05:45:35.267Z,102078.92
2019-02-06T05:48:04.624Z,102082.72
2019-02-06T05:50:33.768Z,102075.98
2019-02-06T05:53:02.814Z,102076.41
2019-02-06T05:55:31.998Z,102067.98
2019-02-06T05:58:01.089Z,102078.05
2019-02-06T06:00:34.494Z,102084.37
2019-02-06T06:03:03.688Z,102083.97
2019-02-06T06:05:32.762Z,102083.97
2019-02-06T06:08:01.834Z,102074.27
2019-02-06T06:10:31.009Z,102074.27
2019-02-06T06:13:00.082Z,102068.77
2019-02-06T06:15:30.800Z,102068.77
2019-02-06T06:17:59.807Z,102078.44
2019-02-06T06:20:28.909Z,102075.89
2019-02-06T06:22:58.001Z,102054.85
2019-02-06T06:25:27.394Z,102054.85
2019-02-06T06:27:56.411Z,102059.06
2019-02-06T06:30:25.515Z,102072.10
2019-02-06T06:32:54.602Z,102064.50
2019-02-06T06:35:23.733Z,102058.61
2019-02-06T06:37:59.930Z,102058.61
2019-02-06T06:40:23.864Z,102056.06
2019-02-06T06:42:52.953Z,102066.16
2019-02-06T06:45:23.719Z,102051.42
2019-02-06T06:47:52.901Z,102052.28
2019-02-06T06:50:23.608Z,102054.38
2019-02-06T06:52:52.865Z,102054.38
2019-02-06T06:55:22.343Z,102053.92
2019-02-06T06:57:51.624Z,102053.92
2019-02-06T07:00:25.462Z,102052.27
2019-02-06T07:02:54.675Z,102045.97
2019-02-06T07:05:23.930Z,102050.19
2019-02-06T07:07:53.612Z,102051.89
2019-02-06T07:10:24.599Z,102061.98
2019-02-06T07:12:53.783Z,102061.16
2019-02-06T07:15:30.991Z,102059.95
2019-02-06T07:18:00.283Z,102060.34
2019-02-06T07:20:29.446Z,102065.41
2019-02-06T07:22:58.904Z,102059.11
2019-02-06T07:25:28.002Z,102067.52
2019-02-06T07:27:57.181Z,102068.78
2019-02-06T07:30:31.315Z,102067.56
2019-02-06T07:33:02.862Z,102067.56
2019-02-06T07:35:31.972Z,102070.50
2019-02-06T07:38:01.435Z,102073.00
2019-02-06T07:40:34.438Z,102073.00
2019-02-06T07:43:03.502Z,102066.70
2019-02-06T07:45:32.532Z,102066.70
2019-02-06T07:48:01.680Z,102072.61
2019-02-06T07:50:32.633Z,102067.96
2019-02-06T07:53:01.775Z,102067.11
2019-02-06T07:55:33.066Z,102067.58
2019-02-06T07:58:02.093Z,102072.18
2019-02-06T08:00:31.207Z,102072.18
2019-02-06T08:03:00.610Z,102068.00
2019-02-06T08:05:30.147Z,102075.59
2019-02-06T08:07:59.458Z,102081.05
2019-02-06T08:10:33.621Z,102080.23
2019-02-06T08:13:03.013Z,102080.23
2019-02-06T08:15:32.286Z,102074.77
2019-02-06T08:18:01.444Z,102074.77
2019-02-06T08:20:31.651Z,102083.22
2019-02-06T08:23:00.765Z,102065.19
2019-02-06T08:25:29.863Z,102083.18
2019-02-06T08:27:59.045Z,102083.18
2019-02-06T08:30:30.428Z,102084.46
2019-02-06T08:32:59.623Z,102090.31
2019-02-06T08:35:28.793Z,102090.31
2019-02-06T08:37:57.872Z,102084.88
2019-02-06T08:40:27.245Z,102084.88
2019-02-06T08:42:56.264Z,102092.80
2019-02-06T08:45:26.000Z,102089.47
2019-02-06T08:47:55.176Z,102089.47
2019-02-06T08:50:24.462Z,102083.12
2019-02-06T08:52:53.725Z,102083.12
2019-02-06T08:55:25.066Z,102089.84
2019-02-06T08:57:54.266Z,102089.43
2019-02-06T09:00:28.244Z,102089.86
2019-02-06T09:02:57.391Z,102089.86
2019-02-06T09:05:26.852Z,102089.37
2019-02-06T09:07:56.013Z,102089.37
2019-02-06T09:10:25.590Z,102091.05
2019-02-06T09:12:55.263Z,102091.05
2019-02-06T09:15:27.177Z,102086.80
2019-02-06T09:17:55.338Z,102083.48
2019-02-06T09:20:25.557Z,102091.45
2019-02-06T09:22:54.781Z,102086.79
2019-02-06T09:25:24.388Z,102088.05
2019-02-06T09:27:54.234Z,102096.45
2019-02-06T09:30:25.523Z,102091.39
2019-02-06T09:32:57.281Z,102091.77
2019-02-06T09:35:26.819Z,102098.08
2019-02-06T09:37:55.991Z,102097.22
2019-02-06T09:40:27.049Z,102094.71
2019-02-06T09:42:57.173Z,102090.02
2019-02-06T09:45:26.371Z,102090.41
2019-02-06T09:47:55.443Z,102086.64
2019-02-06T09:50:28.166Z,102089.99
2019-02-06T09:52:57.332Z,102089.99
2019-02-06T09:55:26.514Z,102085.78
2019-02-06T09:57:55.789Z,102079.81
2019-02-06T10:00:27.214Z,102075.95
2019-02-06T10:02:56.411Z,102075.95
2019-02-06T10:05:25.622Z,102082.70
2019-02-06T10:07:54.787Z,102082.69
2019-02-06T10:10:24.706Z,102080.14
2019-02-06T10:12:53.884Z,102079.30
2019-02-06T10:15:25.100Z,102079.30
2019-02-06T10:17:54.920Z,102082.62
2019-02-06T10:20:25.876Z,102080.01
2019-02-06T10:22:56.713Z,102082.56
2019-02-06T10:25:25.874Z,102074.95
2019-02-06T10:27:54.966Z,102074.95
2019-02-06T10:30:30.102Z,102077.04
2019-02-06T10:33:00.590Z,102079.12
2019-02-06T10:35:29.735Z,102074.83
2019-02-06T10:37:58.894Z,102072.27
2019-02-06T10:40:28.444Z,102067.26
2019-02-06T10:42:57.643Z,102060.90
2019-02-06T10:45:26.715Z,102060.90
2019-02-06T10:47:56.221Z,102063.28
2019-02-06T10:50:26.793Z,102067.09
2019-02-06T10:52:55.880Z,102067.09
2019-02-06T10:55:24.992Z,102057.39
2019-02-06T10:57:54.074Z,102052.73
2019-02-06T11:00:29.712Z,102051.02
2019-02-06T11:02:57.367Z,102051.02
2019-02-06T11:05:26.523Z,102044.67
2019-02-06T11:07:55.714Z,102053.43
2019-02-06T11:10:24.963Z,102051.34
2019-02-06T11:12:54.165Z,102049.55
2019-02-06T11:15:24.402Z,102045.30
2019-02-06T11:17:53.896Z,102046.53
2019-02-06T11:20:23.471Z,102041.45
2019-02-06T11:22:52.659Z,102038.95
2019-02-06T11:25:21.756Z,102034.70
2019-02-06T11:27:50.899Z,102034.25
2019-02-06T11:30:22.662Z,102030.86
2019-02-06T11:32:52.107Z,102030.80
2019-02-06T11:35:21.230Z,102024.47
2019-02-06T11:37:50.423Z,102024.47
2019-02-06T11:40:21.438Z,102019.33
2019-02-06T11:42:50.825Z,102021.41
2019-02-06T11:45:22.258Z,102013.39
2019-02-06T11:47:51.496Z,102008.34
2019-02-06T11:50:24.442Z,102009.96
2019-02-06T11:52:53.688Z,102005.26
2019-02-06T11:55:23.614Z,101996.41
2019-02-06T11:57:52.787Z,101996.41
2019-02-06T12:00:32.592Z,101994.33
2019-02-06T12:03:01.775Z,101994.33
2019-02-06T12:05:30.890Z,101993.81
2019-02-06T12:07:59.969Z,101989.95
2019-02-06T12:10:29.065Z,101990.80
2019-02-06T12:12:58.075Z,101990.80
2019-02-06T12:15:27.456Z,101993.27
2019-02-06T12:17:56.487Z,101990.28
2019-02-06T12:20:26.064Z,101990.28
2019-02-06T12:22:55.216Z,101985.22
2019-02-06T12:25:24.412Z,101983.95
2019-02-06T12:27:53.825Z,101980.09
2019-02-06T12:30:26.231Z,101972.49
2019-02-06T12:32:55.374Z,101965.32
2019-02-06T12:35:24.518Z,101972.49
2019-02-06T12:37:53.684Z,101958.11
2019-02-06T12:40:23.966Z,101956.78
2019-02-06T12:42:53.140Z,101960.05
2019-02-06T12:45:22.532Z,101957.91
2019-02-06T12:47:52.877Z,101951.16
2019-02-06T12:50:22.562Z,101951.16
2019-02-06T12:52:51.740Z,101945.98
2019-02-06T12:55:23.488Z,101941.83
2019-02-06T12:57:52.697Z,101935.35
2019-02-06T13:00:27.161Z,101935.35
2019-02-06T13:02:59.856Z,101927.72
2019-02-06T13:05:27.602Z,101922.77
2019-02-06T13:07:56.755Z,101921.81
2019-02-06T13:10:33.202Z,101910.75
2019-02-06T13:12:56.921Z,101910.38
2019-02-06T13:15:25.988Z,101914.17
2019-02-06T13:17:55.544Z,101914.98
2019-02-06T13:20:27.884Z,101911.95
2019-02-06T13:22:57.187Z,101905.16
2019-02-06T13:25:26.572Z,101895.40
2019-02-06T13:27:55.669Z,101901.73
2019-02-06T13:30:26.988Z,101898.44
2019-02-06T13:32:56.284Z,101896.28
2019-02-06T13:35:25.370Z,101894.48
2019-02-06T13:37:54.548Z,101895.41
2019-02-06T13:40:24.800Z,101895.74
2019-02-06T13:42:54.058Z,101891.02
2019-02-06T13:45:25.604Z,101887.17
2019-02-06T13:47:56.897Z,101887.17
2019-02-06T13:50:26.508Z,101883.75
2019-02-06T13:52:55.659Z,101886.80
2019-02-06T13:55:24.872Z,101886.33
2019-02-06T13:57:54.053Z,101886.33
2019-02-06T14:00:25.704Z,101880.76
2019-02-06T14:02:54.912Z,101876.16
2019-02-06T14:05:26.641Z,101881.55
2019-02-06T14:07:58.406Z,101877.42
2019-02-06T14:10:28.203Z,101877.42
2019-02-06T14:12:57.569Z,101877.77
2019-02-06T14:15:29.905Z,101874.36
2019-02-06T14:17:59.247Z,101882.45
2019-02-06T14:20:28.527Z,101882.45
2019-02-06T14:23:25.661Z,101876.06
2019-02-06T14:26:06.867Z,101871.70
2019-02-06T14:29:14.359Z,101871.70
2019-02-06T14:32:15.871Z,101869.59
2019-02-06T14:35:06.652Z,101853.54
2019-02-06T14:38:06.176Z,101853.54
2019-02-06T14:41:08.209Z,101851.01
2019-02-06T14:43:59.353Z,101845.52
2019-02-06T14:47:01.490Z,101834.54
2019-02-06T14:50:02.155Z,101825.20
2019-02-06T14:53:03.202Z,101825.20
2019-02-06T14:56:10.427Z,101783.76
2019-02-06T14:59:36.644Z,101818.06
2019-02-06T15:02:31.736Z,101819.00
2019-02-06T15:05:15.624Z,101813.28
2019-02-06T15:08:16.278Z,101815.39
2019-02-06T15:11:03.991Z,101804.84
2019-02-06T15:14:16.096Z,101797.09
2019-02-06T15:17:16.983Z,101797.09
2019-02-06T15:20:18.453Z,101792.91
2019-02-06T15:23:32.500Z,101792.91
2019-02-06T15:26:20.235Z,101798.30
2019-02-06T15:29:02.615Z,101797.89
2019-02-06T15:32:16.937Z,101797.89
2019-02-06T15:35:12.217Z,101788.12
2019-02-06T15:38:17.490Z,101782.63
2019-02-06T15:41:11.068Z,101769.84
2019-02-06T15:44:11.047Z,101766.95
2019-02-06T15:47:17.893Z,101766.95
2019-02-06T15:50:31.076Z,101764.41
2019-02-06T15:53:28.688Z,101763.61
2019-02-06T15:56:44.960Z,101765.72
2019-02-06T15:59:24.137Z,101767.41
2019-02-06T16:02:16.855Z,101759.91
2019-02-06T16:05:35.277Z,101759.91
2019-02-06T16:08:11.144Z,101758.54
2019-02-06T16:10:54.326Z,101760.14
2019-02-06T16:13:52.967Z,101765.25
2019-02-06T16:17:02.952Z,101766.98
2019-02-06T16:20:04.809Z,101766.98
2019-02-06T16:23:21.539Z,101757.27
2019-02-06T16:26:36.763Z,101756.86
2019-02-06T16:29:28.056Z,101756.76
2019-02-06T16:32:27.513Z,101746.13
2019-02-06T16:35:17.822Z,101746.13
2019-02-06T16:38:10.802Z,101755.80
2019-02-06T16:41:20.647Z,101757.12
2019-02-06T16:44:20.435Z,101749.89
2019-02-06T16:47:45.201Z,101747.21
2019-02-06T16:50:37.838Z,101740.45
2019-02-06T16:53:32.512Z,101737.63
2019-02-06T16:57:10.201Z,101734.89
2019-02-06T17:00:25.088Z,101724.75
2019-02-06T17:03:39.476Z,101719.62
2019-02-06T17:06:54.514Z,101719.62
2019-02-06T17:09:38.264Z,101713.72
2019-02-06T17:12:41.457Z,101713.72
2019-02-06T17:15:50.206Z,101718.36
2019-02-06T17:18:43.910Z,101717.36
2019-02-06T17:21:45.828Z,101713.66
2019-02-06T17:25:11.221Z,101709.33
2019-02-06T17:27:48.761Z,101709.33
2019-02-06T17:30:32.238Z,101707.69
2019-02-06T17:33:38.036Z,101703.41
2019-02-06T17:36:34.112Z,101699.66
2019-02-06T17:39:37.796Z,101701.72
2019-02-06T17:42:27.436Z,101695.86
2019-02-06T17:45:27.557Z,101695.86
2019-02-06T17:48:18.736Z,101695.37
2019-02-06T17:51:02.530Z,101685.72
2019-02-06T17:53:50.336Z,101691.15
2019-02-06T17:56:19.508Z,101691.05
2019-02-06T17:58:48.618Z,101691.05
2019-02-06T18:01:28.565Z,101695.75
2019-02-06T18:04:04.654Z,101682.16
2019-02-06T18:06:33.638Z,101682.59
2019-02-06T18:09:05.320Z,101677.95
2019-02-06T18:11:34.586Z,101674.92
2019-02-06T18:14:04.113Z,101671.95
2019-02-06T18:16:33.278Z,101670.69
2019-02-06T18:19:02.749Z,101666.09
2019-02-06T18:21:32.161Z,101666.09
2019-02-06T18:24:01.483Z,101669.38
2019-02-06T18:26:31.059Z,101669.38
2019-02-06T18:29:01.669Z,101663.70
2019-02-06T18:31:30.645Z,101660.31
2019-02-06T18:33:59.732Z,101657.84
2019-02-06T18:36:28.935Z,101657.84
2019-02-06T18:38:57.982Z,101657.80
2019-02-06T18:41:27.157Z,101646.37
2019-02-06T18:43:57.079Z,101650.17
2019-02-06T18:46:26.201Z,101647.63
2019-02-06T18:48:55.404Z,101647.63
2019-02-06T18:51:24.519Z,101636.10
2019-02-06T18:53:53.619Z,101627.60
2019-02-06T18:56:22.813Z,101628.13
2019-02-06T18:58:51.964Z,101617.09
2019-02-06T19:01:21.148Z,101617.50
2019-02-06T19:03:53.914Z,101613.22
2019-02-06T19:06:23.092Z,101618.24
2019-02-06T19:08:52.322Z,101614.78
2019-02-06T19:11:24.312Z,101605.12
2019-02-06T19:13:52.433Z,101603.48
2019-02-06T19:16:21.604Z,101594.98
2019-02-06T19:18:50.617Z,101592.80
2019-02-06T19:21:20.215Z,101584.45
2019-02-06T19:23:49.305Z,101571.43
2019-02-06T19:26:18.384Z,101580.65
2019-02-06T19:28:47.627Z,101576.74
2019-02-06T19:31:16.695Z,101565.42
2019-02-06T19:33:45.816Z,101564.89
2019-02-06T19:36:19.204Z,101553.53
2019-02-06T19:38:49.137Z,101553.53
2019-02-06T19:41:18.163Z,101543.53
2019-02-06T19:43:47.257Z,101544.80
2019-02-06T19:46:16.340Z,101536.81
2019-02-06T19:48:45.333Z,101540.98
2019-02-06T19:51:14.325Z,101540.98
2019-02-06T19:53:43.393Z,101534.22
2019-02-06T19:56:12.569Z,101526.48
2019-02-06T19:58:41.756Z,101531.63
2019-02-06T20:01:11.025Z,101517.68
2019-02-06T20:03:40.206Z,101521.46
2019-02-06T20:06:09.917Z,101524.38
2019-02-06T20:08:39.109Z,101521.77
2019-02-06T20:11:08.222Z,101506.73
2019-02-06T20:13:37.456Z,101503.27
2019-02-06T20:16:06.656Z,101491.86
2019-02-06T20:18:35.774Z,101488.84
2019-02-06T20:21:04.996Z,101482.09
2019-02-06T20:23:34.080Z,101479.47
2019-02-06T20:26:03.201Z,101474.78
2019-02-06T20:28:32.315Z,101478.43
2019-02-06T20:31:01.554Z,101477.78
2019-02-06T20:33:30.679Z,101472.65
2019-02-06T20:35:59.786Z,101473.30
2019-02-06T20:38:28.895Z,101478.78
2019-02-06T20:40:57.989Z,101478.78
2019-02-06T20:43:27.061Z,101476.27
2019-02-06T20:45:56.396Z,101477.54
2019-02-06T20:48:26.023Z,101471.06
2019-02-06T20:50:55.078Z,101467.96
2019-02-06T20:53:24.122Z,101455.76
2019-02-06T20:55:53.191Z,101454.92
2019-02-06T20:58:22.228Z,101451.95
2019-02-06T21:00:51.375Z,101449.78
2019-02-06T21:03:20.414Z,101447.66
2019-02-06T21:05:49.596Z,101444.69
2019-02-06T21:08:18.760Z,101434.91
2019-02-06T21:10:47.850Z,101424.77
2019-02-06T21:13:18.996Z,101421.80
2019-02-06T21:15:48.172Z,101420.09
2019-02-06T21:18:17.253Z,101421.25
2019-02-06T21:20:46.313Z,101418.77
2019-02-06T21:23:15.946Z,101418.77
2019-02-06T21:25:44.958Z,101411.09
2019-02-06T21:28:14.208Z,101413.55
2019-02-06T21:30:43.398Z,101411.09
2019-02-06T21:33:12.599Z,101408.83
2019-02-06T21:35:41.987Z,101400.92
2019-02-06T21:38:11.164Z,101397.00
2019-02-06T21:40:40.795Z,101392.81
2019-02-06T21:43:09.913Z,101395.41
2019-02-06T21:45:39.086Z,101387.88
2019-02-06T21:48:08.151Z,101388.23
2019-02-06T21:50:37.705Z,101388.23
2019-02-06T21:53:06.839Z,101382.37
2019-02-06T21:55:35.953Z,101376.03
2019-02-06T21:58:05.240Z,101376.03
2019-02-06T22:00:37.186Z,101366.31
2019-02-06T22:03:06.797Z,101364.20
2019-02-06T22:05:37.594Z,101364.47
2019-02-06T22:08:06.764Z,101356.53
2019-02-06T22:10:35.909Z,101356.53
2019-02-06T22:13:05.572Z,101352.27
2019-02-06T22:15:34.756Z,101351.08
2019-02-06T22:18:03.878Z,101341.45
2019-02-06T22:20:32.980Z,101337.55
2019-02-06T22:23:02.160Z,101330.78
2019-02-06T22:26:17.883Z,101322.39
2019-02-06T22:28:02.091Z,101322.39
2019-02-06T22:30:31.259Z,101320.28
2019-02-06T22:33:00.351Z,101320.28
2019-02-06T22:35:29.491Z,101308.09
2019-02-06T22:37:58.582Z,101300.84
2019-02-06T22:40:27.843Z,101299.29
2019-02-06T22:42:56.989Z,101299.12
2019-02-06T22:45:27.055Z,101289.58
2019-02-06T22:47:56.348Z,101286.52
2019-02-06T22:50:26.591Z,101281.96
2019-02-06T22:52:55.787Z,101281.96
2019-02-06T22:55:25.156Z,101278.97
2019-02-06T22:57:54.397Z,101273.55
2019-02-06T23:00:50.048Z,101272.22
2019-02-06T23:03:29.075Z,101272.22
2019-02-06T23:05:58.283Z,101260.52
2019-02-06T23:08:27.419Z,101261.66
2019-02-06T23:10:56.968Z,101255.66
2019-02-06T23:13:26.084Z,101244.73
2019-02-06T23:15:57.601Z,101247.83
2019-02-06T23:18:26.608Z,101245.57
2019-02-06T23:20:55.708Z,101236.69
2019-02-06T23:23:24.839Z,101236.69
2019-02-06T23:25:54.824Z,101229.23
2019-02-06T23:28:23.977Z,101229.23
2019-02-06T23:30:52.992Z,101222.39
2019-02-06T23:33:22.469Z,101222.39
2019-02-06T23:35:51.640Z,101214.72
2019-02-06T23:38:20.722Z,101201.16
2019-02-06T23:40:50.265Z,101201.16
2019-02-06T23:43:19.371Z,101191.85
2019-02-06T23:45:48.567Z,101179.50
2019-02-06T23:48:17.556Z,101172.77
2019-02-06T23:50:46.617Z,101161.84
2019-02-06T23:53:15.715Z,101154.38
2019-02-06T23:55:45.171Z,101154.38
2019-02-06T23:58:14.268Z,101147.54
